x

Port Colborne (45142) Wave Buoy

6:00pm - Tue 4th Aug 2015 All times are CDT. -5 hours from GMT.

  • Sig Wave height 3.3ft
  • Peak Period 5s
  • Wind
    16mph, 20mph gusts
  • Sea Temp 74°f
  • Air Temp 72°f
  • Sea Pressure 1011.8mb
  • Port Colborne
  • Port Colborne

More Historic Weather Station data

Upgrade to MSW Pro to gain access to the past 30 days of data for over 8000 Wavebouys and Weather Stations around the globe.

Join Pro

Comparision Forecast

View Surf forecast
   
Tue 08/04 6:00pm 3.5ft 5s 16 20 mph 1011.8mb 74f 72f
5:00pm 3.5ft 5s 9 13 mph 1012.4mb 74f 70f
4:00pm 3.5ft 4s 20 25 mph 1011.7mb 74f 73f
3:00pm 3.5ft 4s 20 25 mph 1011.4mb 74f 72f
2:00pm 3ft 4s 22 27 mph 1012mb 74f 72f
1:00pm 1.6ft 3s 22 25 mph 1012mb 74f 72f
12:00pm 1ft 3s 18 22 mph 1012.3mb 74f 71f
11:00am 0.7ft 3s 13
mph
1012.5mb 74f 70f
10:00am 0.7ft 3s 7 9 mph 1012.5mb 74f 69f
9:00am 1ft 5s 7 9 mph 1012.5mb 73f 69f
8:00am 1ft 4s 9 11 mph 1012.1mb 73f 69f
7:00am 1ft 5s 7 11 mph 1011.7mb 73f 70f
6:00am 1.3ft 5s 7 9 mph 1011.1mb 73f 70f
5:00am 1.3ft 5s 7 9 mph 1010.7mb 73f 70f
4:00am 1.3ft 5s 11 13 mph 1010.2mb 73f 71f
3:00am 1.6ft 5s 9 11 mph 1009.9mb 74f 71f
2:00am 1.6ft 5s 9
mph
1009.5mb 73f 71f
1:00am 1.6ft 6s 9 11 mph 1009.5mb 73f 71f
12:00am 2ft 5s 7
mph
1009.3mb 73f 71f
Mon 08/03 11:00pm 2.5ft 4s 9
mph
1009.1mb 73f 71f
10:00pm 2.5ft 4s 11 16 mph 1009.2mb 73f 70f
9:00pm 2.5ft 4s 13 16 mph 1008.8mb 73f 71f
8:00pm 2.5ft 6s 18 20 mph 1008.4mb 73f 72f
7:00pm 3ft 6s 18 20 mph 1008.1mb 73f 72f
6:00pm 3.5ft 5s 16 20 mph 1007.6mb 74f 72f
5:00pm 3.5ft 7s 18 20 mph 1007.4mb 74f 72f
4:00pm 4ft 6s 18 22 mph 1007.6mb 74f 71f
3:00pm 3.5ft 6s 18 22 mph 1008mb 74f 71f
2:00pm 3.5ft 6s 18 20 mph 1008.1mb 74f 71f
1:00pm 3.5ft 6s 13 16 mph 1008.1mb 74f 71f
12:00pm 4ft 6s 16 18 mph 1007.9mb 74f 71f
11:00am 4.5ft 7s 16 18 mph 1007.7mb 74f 71f
10:00am 5ft 6s 16 20 mph 1007.7mb 73f 70f
9:00am 5ft 5s 18 22 mph 1007.3mb 73f 71f
8:00am 5ft 6s 20 25 mph 1006.8mb 73f 71f
7:00am 5ft 6s 22 29 mph 1006.2mb 73f 71f
6:00am 5ft 6s 25 31 mph 1005.2mb 73f 71f
5:00am 5ft 6s 25 31 mph 1004mb 73f 72f
4:00am 4.5ft 5s 27 34 mph 1004.6mb 73f 71f
3:00am 4ft 5s 27 31 mph 1004.9mb 74f 70f
2:00am 3.5ft 5s 25 27 mph 1006.1mb 74f 69f
1:00am 3.5ft 5s 22 25 mph 1006.3mb 74f 69f
12:00am 4ft 5s 16 25 mph 1005.9mb 74f 71f
Sun 08/02 11:00pm 4.5ft 5s 20 25 mph 1005.1mb 74f 73f
10:00pm 3.5ft 4s 27 34 mph 1003.3mb 74f 79f
9:00pm 2ft 4s 22 29 mph 1004mb 74f 79f
8:00pm 1.6ft 4s 18 22 mph 1004.9mb 74f 79f
7:00pm 1.3ft 4s 11 13 mph 1006.3mb 74f 76f
6:00pm 1.6ft 4s 11 13 mph 1006.6mb 74f 76f
5:00pm 1.3ft 4s 13 16 mph 1007.3mb 74f 76f
4:00pm 1.6ft 4s 11 13 mph 1008.2mb 74f 75f
3:00pm 1.6ft 4s 11 13 mph 1008.9mb 74f 75f
2:00pm 2ft 4s 11 13 mph 1009.3mb 73f 74f
1:00pm 2ft 4s 13 16 mph 1010mb 73f 74f
12:00pm 2ft 4s 16 18 mph 1011.1mb 73f 73f
11:00am 2.5ft 4s 16 18 mph 1011.1mb 73f 73f
10:00am 2ft 4s 16 18 mph 1011.2mb 73f 72f
9:00am 2.5ft 5s 13 18 mph 1011.7mb 73f 71f
8:00am 2.5ft 4s 16 18 mph 1011.6mb 73f 71f
7:00am 2.5ft 4s 16 18 mph 1011.2mb 72f 71f
6:00am 2.5ft 4s 16 18 mph 1011mb 72f 72f
5:00am 2.5ft 5s 16 18 mph 1010.4mb 72f 73f
4:00am 2.5ft 4s 18 20 mph 1010.2mb 73f 72f
3:00am 2.5ft 4s 18 22 mph 1010.2mb 73f 72f
2:00am 2ft 4s 18 20 mph 1010.5mb 73f 73f
1:00am 2ft 4s 13 18 mph 1010.5mb 73f 73f
12:00am 2.5ft 5s 16 18 mph 1010.8mb 73f 73f
Sat 08/01 11:00pm 2.5ft 5s 13
mph
1010.9mb 73f 73f
10:00pm 3ft 5s 13 16 mph 1011.1mb 73f 73f
9:00pm 3ft 5s 13 16 mph 1011.2mb 73f 73f
8:00pm 3.5ft 5s 16 18 mph 1011mb 73f 73f
7:00pm 4.5ft 5s 20 22 mph 1010.6mb 73f 73f
6:00pm 4ft 5s 27 34 mph 1010.2mb 73f 71f
5:00pm 2.5ft 5s 22 27 mph 1010.1mb 73f 73f
4:00pm 2ft 4s 18 20 mph 1010.6mb 73f 73f
3:00pm 2.5ft 4s 11
mph
1011mb 73f 70f
2:00pm 2ft 4s 20 22 mph 1011.4mb 73f 71f
1:00pm 2ft 3s 18 20 mph 1011mb 73f 72f
12:00pm 2ft 5s 16 18 mph 1011.4mb 73f 71f
11:00am 1.6ft 4s 13 16 mph 1012mb 73f 70f
10:00am 1.6ft 5s 11 13 mph 1012.1mb 73f 69f
9:00am 1.6ft 4s 9 13 mph 1012mb 73f 68f
8:00am 2ft 5s 11 13 mph 1011.8mb 73f 68f
7:00am 2ft 5s 13 16 mph 1011.4mb 73f 68f
6:00am 1.6ft 5s 13 18 mph 1010.9mb 72f 68f
5:00am 1.3ft 5s 16 18 mph 1010.3mb 72f 68f
4:00am 1.6ft 5s 9 13 mph 1009.9mb 72f 69f
3:00am 2ft 5s 11 13 mph 1009.5mb 72f 70f
2:00am 2ft 5s 11 16 mph 1009.2mb 72f 70f
1:00am 2.5ft 5s 7 9 mph 1009.2mb 72f 70f